sensor_id;sensor_type;location;lat;lon;timestamp;P1;durP1;ratioP1;P2;durP2;ratioP2
71513;SDS011;59335;46.652;21.272;2023-03-09T00:00:16;6.75;;;3.60;;
71513;SDS011;59335;46.652;21.272;2023-03-09T00:03:22;7.80;;;3.80;;
71513;SDS011;59335;46.652;21.272;2023-03-09T00:06:25;7.73;;;3.40;;
71513;SDS011;59335;46.652;21.272;2023-03-09T00:09:28;7.82;;;3.63;;
71513;SDS011;59335;46.652;21.272;2023-03-09T00:12:31;8.40;;;3.83;;
71513;SDS011;59335;46.652;21.272;2023-03-09T00:15:34;7.63;;;3.70;;
71513;SDS011;59335;46.652;21.272;2023-03-09T00:18:37;8.55;;;3.58;;
71513;SDS011;59335;46.652;21.272;2023-03-09T00:21:40;5.90;;;3.30;;
71513;SDS011;59335;46.652;21.272;2023-03-09T00:24:50;7.05;;;3.70;;
71513;SDS011;59335;46.652;21.272;2023-03-09T00:27:56;8.05;;;3.72;;
71513;SDS011;59335;46.652;21.272;2023-03-09T00:31:00;9.57;;;3.88;;
71513;SDS011;59335;46.652;21.272;2023-03-09T00:34:04;8.35;;;3.92;;
71513;SDS011;59335;46.652;21.272;2023-03-09T00:37:07;6.83;;;3.50;;
71513;SDS011;59335;46.652;21.272;2023-03-09T00:40:10;7.03;;;3.50;;
71513;SDS011;59335;46.652;21.272;2023-03-09T00:43:13;8.82;;;3.60;;
71513;SDS011;59335;46.652;21.272;2023-03-09T00:46:16;6.55;;;3.22;;
71513;SDS011;59335;46.652;21.272;2023-03-09T00:49:18;7.90;;;3.20;;
71513;SDS011;59335;46.652;21.272;2023-03-09T00:52:21;7.03;;;3.60;;
71513;SDS011;59335;46.652;21.272;2023-03-09T00:55:24;7.68;;;3.72;;
71513;SDS011;59335;46.652;21.272;2023-03-09T00:58:27;7.88;;;3.45;;
71513;SDS011;59335;46.652;21.272;2023-03-09T01:01:30;7.47;;;3.67;;
71513;SDS011;59335;46.652;21.272;2023-03-09T01:04:33;7.57;;;3.60;;
71513;SDS011;59335;46.652;21.272;2023-03-09T01:07:36;8.93;;;3.50;;
71513;SDS011;59335;46.652;21.272;2023-03-09T01:10:39;7.20;;;3.60;;
71513;SDS011;59335;46.652;21.272;2023-03-09T01:13:42;7.20;;;3.38;;
71513;SDS011;59335;46.652;21.272;2023-03-09T01:16:46;7.18;;;3.45;;
71513;SDS011;59335;46.652;21.272;2023-03-09T01:19:49;6.55;;;3.50;;
71513;SDS011;59335;46.652;21.272;2023-03-09T01:22:52;7.33;;;3.40;;
71513;SDS011;59335;46.652;21.272;2023-03-09T01:25:55;7.18;;;3.58;;
71513;SDS011;59335;46.652;21.272;2023-03-09T01:28:58;6.32;;;3.30;;
71513;SDS011;59335;46.652;21.272;2023-03-09T01:32:02;5.93;;;3.25;;
71513;SDS011;59335;46.652;21.272;2023-03-09T01:35:04;8.10;;;3.55;;
71513;SDS011;59335;46.652;21.272;2023-03-09T01:38:07;6.93;;;3.30;;
71513;SDS011;59335;46.652;21.272;2023-03-09T01:41:11;7.15;;;3.10;;
71513;SDS011;59335;46.652;21.272;2023-03-09T01:44:15;7.03;;;3.60;;
71513;SDS011;59335;46.652;21.272;2023-03-09T01:47:18;7.15;;;3.17;;
71513;SDS011;59335;46.652;21.272;2023-03-09T01:50:22;7.75;;;3.45;;
71513;SDS011;59335;46.652;21.272;2023-03-09T01:53:28;6.70;;;3.10;;
71513;SDS011;59335;46.652;21.272;2023-03-09T01:56:31;7.40;;;3.60;;
71513;SDS011;59335;46.652;21.272;2023-03-09T01:59:34;7.80;;;3.75;;
71513;SDS011;59335;46.652;21.272;2023-03-09T02:02:39;8.18;;;3.63;;
71513;SDS011;59335;46.652;21.272;2023-03-09T02:05:49;7.50;;;3.40;;
71513;SDS011;59335;46.652;21.272;2023-03-09T02:12:30;6.78;;;3.60;;
71513;SDS011;59335;46.652;21.272;2023-03-09T02:15:33;7.03;;;3.40;;
71513;SDS011;59335;46.652;21.272;2023-03-09T02:18:36;7.50;;;3.47;;
71513;SDS011;59335;46.652;21.272;2023-03-09T02:21:47;7.90;;;3.38;;
71513;SDS011;59335;46.652;21.272;2023-03-09T02:28:22;6.25;;;3.20;;
71513;SDS011;59335;46.652;21.272;2023-03-09T02:31:25;7.25;;;3.60;;
71513;SDS011;59335;46.652;21.272;2023-03-09T02:34:28;6.40;;;3.20;;
71513;SDS011;59335;46.652;21.272;2023-03-09T02:37:35;7.30;;;3.80;;
71513;SDS011;59335;46.652;21.272;2023-03-09T02:40:45;6.03;;;3.20;;
71513;SDS011;59335;46.652;21.272;2023-03-09T02:43:52;5.65;;;3.08;;
71513;SDS011;59335;46.652;21.272;2023-03-09T02:47:06;6.13;;;3.42;;
71513;SDS011;59335;46.652;21.272;2023-03-09T02:50:12;6.05;;;3.33;;
71513;SDS011;59335;46.652;21.272;2023-03-09T02:53:16;6.63;;;3.50;;
71513;SDS011;59335;46.652;21.272;2023-03-09T02:56:19;8.03;;;3.23;;
71513;SDS011;59335;46.652;21.272;2023-03-09T02:59:21;6.65;;;3.47;;
71513;SDS011;59335;46.652;21.272;2023-03-09T03:02:24;6.53;;;3.42;;
71513;SDS011;59335;46.652;21.272;2023-03-09T03:05:27;6.28;;;3.10;;
71513;SDS011;59335;46.652;21.272;2023-03-09T03:08:30;7.40;;;3.20;;
71513;SDS011;59335;46.652;21.272;2023-03-09T03:11:41;6.40;;;3.00;;
71513;SDS011;59335;46.652;21.272;2023-03-09T03:14:44;7.32;;;3.40;;
71513;SDS011;59335;46.652;21.272;2023-03-09T03:17:50;6.75;;;3.25;;
71513;SDS011;59335;46.652;21.272;2023-03-09T03:20:53;6.65;;;3.78;;
71513;SDS011;59335;46.652;21.272;2023-03-09T03:23:56;7.53;;;3.30;;
71513;SDS011;59335;46.652;21.272;2023-03-09T03:27:02;7.20;;;3.37;;
71513;SDS011;59335;46.652;21.272;2023-03-09T03:30:05;6.07;;;2.90;;
71513;SDS011;59335;46.652;21.272;2023-03-09T03:33:11;7.60;;;3.40;;
71513;SDS011;59335;46.652;21.272;2023-03-09T03:36:13;6.25;;;3.25;;
71513;SDS011;59335;46.652;21.272;2023-03-09T03:39:18;6.63;;;3.47;;
71513;SDS011;59335;46.652;21.272;2023-03-09T03:42:23;7.27;;;3.30;;
71513;SDS011;59335;46.652;21.272;2023-03-09T03:45:27;6.28;;;3.03;;
71513;SDS011;59335;46.652;21.272;2023-03-09T03:48:30;7.43;;;3.70;;
71513;SDS011;59335;46.652;21.272;2023-03-09T03:51:33;5.80;;;2.95;;
71513;SDS011;59335;46.652;21.272;2023-03-09T03:54:36;6.03;;;3.30;;
71513;SDS011;59335;46.652;21.272;2023-03-09T03:57:39;7.33;;;3.40;;
71513;SDS011;59335;46.652;21.272;2023-03-09T04:00:45;6.72;;;3.13;;
71513;SDS011;59335;46.652;21.272;2023-03-09T04:03:51;7.13;;;3.22;;
71513;SDS011;59335;46.652;21.272;2023-03-09T04:06:54;8.15;;;3.30;;
71513;SDS011;59335;46.652;21.272;2023-03-09T04:09:59;7.22;;;3.35;;
71513;SDS011;59335;46.652;21.272;2023-03-09T04:13:04;6.07;;;3.23;;
71513;SDS011;59335;46.652;21.272;2023-03-09T04:16:07;6.28;;;3.20;;
71513;SDS011;59335;46.652;21.272;2023-03-09T04:19:10;6.72;;;3.55;;
71513;SDS011;59335;46.652;21.272;2023-03-09T04:22:15;6.30;;;3.13;;
71513;SDS011;59335;46.652;21.272;2023-03-09T04:25:19;6.55;;;3.28;;
71513;SDS011;59335;46.652;21.272;2023-03-09T04:28:22;7.07;;;3.07;;
71513;SDS011;59335;46.652;21.272;2023-03-09T04:31:27;6.45;;;3.20;;
71513;SDS011;59335;46.652;21.272;2023-03-09T04:34:31;6.60;;;3.10;;
71513;SDS011;59335;46.652;21.272;2023-03-09T04:37:34;6.90;;;2.97;;
71513;SDS011;59335;46.652;21.272;2023-03-09T04:40:37;6.25;;;3.10;;
71513;SDS011;59335;46.652;21.272;2023-03-09T04:43:41;5.67;;;2.90;;
71513;SDS011;59335;46.652;21.272;2023-03-09T04:46:43;6.30;;;3.17;;
71513;SDS011;59335;46.652;21.272;2023-03-09T04:49:48;6.40;;;3.00;;
71513;SDS011;59335;46.652;21.272;2023-03-09T04:52:53;6.82;;;3.38;;
71513;SDS011;59335;46.652;21.272;2023-03-09T04:55:58;5.75;;;3.25;;
71513;SDS011;59335;46.652;21.272;2023-03-09T04:59:03;6.20;;;3.03;;
71513;SDS011;59335;46.652;21.272;2023-03-09T05:02:07;6.30;;;3.10;;
71513;SDS011;59335;46.652;21.272;2023-03-09T05:05:17;6.50;;;3.28;;
71513;SDS011;59335;46.652;21.272;2023-03-09T05:08:22;6.15;;;3.28;;
71513;SDS011;59335;46.652;21.272;2023-03-09T05:11:25;5.85;;;3.17;;
71513;SDS011;59335;46.652;21.272;2023-03-09T05:14:28;5.47;;;2.93;;
71513;SDS011;59335;46.652;21.272;2023-03-09T05:17:32;7.60;;;3.20;;
71513;SDS011;59335;46.652;21.272;2023-03-09T05:20:36;6.43;;;3.58;;
71513;SDS011;59335;46.652;21.272;2023-03-09T05:23:40;7.72;;;3.10;;
71513;SDS011;59335;46.652;21.272;2023-03-09T05:26:44;6.72;;;3.50;;
71513;SDS011;59335;46.652;21.272;2023-03-09T05:29:50;6.57;;;3.40;;
71513;SDS011;59335;46.652;21.272;2023-03-09T05:32:55;6.50;;;2.70;;
71513;SDS011;59335;46.652;21.272;2023-03-09T05:36:00;5.63;;;3.00;;
71513;SDS011;59335;46.652;21.272;2023-03-09T05:39:03;6.13;;;3.10;;
71513;SDS011;59335;46.652;21.272;2023-03-09T05:42:06;6.07;;;3.40;;
71513;SDS011;59335;46.652;21.272;2023-03-09T05:45:11;6.90;;;3.17;;
71513;SDS011;59335;46.652;21.272;2023-03-09T05:48:14;5.88;;;2.97;;
71513;SDS011;59335;46.652;21.272;2023-03-09T05:51:17;6.47;;;3.40;;
71513;SDS011;59335;46.652;21.272;2023-03-09T05:54:21;6.00;;;3.00;;
71513;SDS011;59335;46.652;21.272;2023-03-09T05:57:26;5.90;;;3.20;;
71513;SDS011;59335;46.652;21.272;2023-03-09T06:00:29;5.73;;;3.00;;
71513;SDS011;59335;46.652;21.272;2023-03-09T06:03:36;6.55;;;3.05;;
71513;SDS011;59335;46.652;21.272;2023-03-09T06:06:42;7.00;;;3.30;;
71513;SDS011;59335;46.652;21.272;2023-03-09T06:09:46;6.32;;;3.10;;
71513;SDS011;59335;46.652;21.272;2023-03-09T06:12:54;6.90;;;3.13;;
71513;SDS011;59335;46.652;21.272;2023-03-09T06:16:12;6.60;;;2.97;;
71513;SDS011;59335;46.652;21.272;2023-03-09T06:19:18;5.85;;;3.10;;
71513;SDS011;59335;46.652;21.272;2023-03-09T06:22:22;6.15;;;3.00;;
71513;SDS011;59335;46.652;21.272;2023-03-09T06:25:26;7.22;;;2.92;;
71513;SDS011;59335;46.652;21.272;2023-03-09T06:28:28;8.15;;;2.97;;
71513;SDS011;59335;46.652;21.272;2023-03-09T06:31:33;7.07;;;2.97;;
71513;SDS011;59335;46.652;21.272;2023-03-09T06:34:37;6.07;;;2.80;;
71513;SDS011;59335;46.652;21.272;2023-03-09T06:37:43;6.32;;;3.17;;
71513;SDS011;59335;46.652;21.272;2023-03-09T06:40:52;6.30;;;3.00;;
71513;SDS011;59335;46.652;21.272;2023-03-09T06:43:58;6.50;;;2.92;;
71513;SDS011;59335;46.652;21.272;2023-03-09T06:47:05;8.10;;;3.37;;
71513;SDS011;59335;46.652;21.272;2023-03-09T06:50:08;7.63;;;3.03;;
71513;SDS011;59335;46.652;21.272;2023-03-09T06:53:15;7.40;;;3.45;;
71513;SDS011;59335;46.652;21.272;2023-03-09T06:56:21;7.72;;;2.95;;
71513;SDS011;59335;46.652;21.272;2023-03-09T06:59:27;6.93;;;3.45;;
71513;SDS011;59335;46.652;21.272;2023-03-09T07:02:32;8.40;;;3.00;;
71513;SDS011;59335;46.652;21.272;2023-03-09T07:05:35;7.18;;;3.05;;
71513;SDS011;59335;46.652;21.272;2023-03-09T07:08:37;9.00;;;3.58;;
71513;SDS011;59335;46.652;21.272;2023-03-09T07:11:41;7.93;;;3.13;;
71513;SDS011;59335;46.652;21.272;2023-03-09T07:14:45;7.22;;;3.05;;
71513;SDS011;59335;46.652;21.272;2023-03-09T07:17:47;6.93;;;2.93;;
71513;SDS011;59335;46.652;21.272;2023-03-09T07:20:50;6.15;;;2.90;;
71513;SDS011;59335;46.652;21.272;2023-03-09T07:23:53;8.07;;;3.63;;
71513;SDS011;59335;46.652;21.272;2023-03-09T07:26:56;11.10;;;3.17;;
71513;SDS011;59335;46.652;21.272;2023-03-09T07:29:58;5.97;;;2.90;;
71513;SDS011;59335;46.652;21.272;2023-03-09T07:33:01;6.70;;;3.03;;
71513;SDS011;59335;46.652;21.272;2023-03-09T07:36:05;7.25;;;3.35;;
71513;SDS011;59335;46.652;21.272;2023-03-09T07:39:11;6.03;;;2.97;;
71513;SDS011;59335;46.652;21.272;2023-03-09T07:42:14;8.27;;;3.13;;
71513;SDS011;59335;46.652;21.272;2023-03-09T07:45:49;5.72;;;2.55;;
71513;SDS011;59335;46.652;21.272;2023-03-09T07:48:52;8.67;;;2.63;;
71513;SDS011;59335;46.652;21.272;2023-03-09T07:51:57;5.38;;;2.80;;
71513;SDS011;59335;46.652;21.272;2023-03-09T07:55:00;9.43;;;3.40;;
71513;SDS011;59335;46.652;21.272;2023-03-09T07:58:04;9.13;;;2.97;;
71513;SDS011;59335;46.652;21.272;2023-03-09T08:01:11;8.25;;;3.25;;
71513;SDS011;59335;46.652;21.272;2023-03-09T08:04:23;9.33;;;3.13;;
71513;SDS011;59335;46.652;21.272;2023-03-09T08:07:28;6.85;;;3.05;;
71513;SDS011;59335;46.652;21.272;2023-03-09T08:10:33;9.48;;;3.13;;
71513;SDS011;59335;46.652;21.272;2023-03-09T08:13:37;10.02;;;3.20;;
71513;SDS011;59335;46.652;21.272;2023-03-09T08:16:41;8.93;;;3.30;;
71513;SDS011;59335;46.652;21.272;2023-03-09T08:19:46;9.20;;;3.07;;
71513;SDS011;59335;46.652;21.272;2023-03-09T08:22:51;11.30;;;2.92;;
71513;SDS011;59335;46.652;21.272;2023-03-09T08:25:56;10.52;;;2.97;;
71513;SDS011;59335;46.652;21.272;2023-03-09T08:29:00;7.47;;;2.67;;
71513;SDS011;59335;46.652;21.272;2023-03-09T08:32:06;9.55;;;3.10;;
71513;SDS011;59335;46.652;21.272;2023-03-09T08:35:10;6.27;;;2.80;;
71513;SDS011;59335;46.652;21.272;2023-03-09T08:38:14;11.65;;;3.08;;
71513;SDS011;59335;46.652;21.272;2023-03-09T08:41:17;8.93;;;2.50;;
71513;SDS011;59335;46.652;21.272;2023-03-09T08:44:20;9.02;;;2.92;;
71513;SDS011;59335;46.652;21.272;2023-03-09T08:47:23;8.50;;;2.58;;
71513;SDS011;59335;46.652;21.272;2023-03-09T08:50:29;13.60;;;2.77;;
71513;SDS011;59335;46.652;21.272;2023-03-09T08:53:32;15.10;;;3.30;;
71513;SDS011;59335;46.652;21.272;2023-03-09T08:56:39;14.05;;;3.20;;
71513;SDS011;59335;46.652;21.272;2023-03-09T08:59:42;6.03;;;2.85;;
71513;SDS011;59335;46.652;21.272;2023-03-09T09:02:49;10.43;;;2.70;;
71513;SDS011;59335;46.652;21.272;2023-03-09T09:05:53;7.77;;;2.80;;
71513;SDS011;59335;46.652;21.272;2023-03-09T09:08:56;13.07;;;3.40;;
71513;SDS011;59335;46.652;21.272;2023-03-09T09:12:00;9.07;;;2.80;;
71513;SDS011;59335;46.652;21.272;2023-03-09T09:15:06;7.40;;;2.75;;
71513;SDS011;59335;46.652;21.272;2023-03-09T09:18:16;10.05;;;3.00;;
71513;SDS011;59335;46.652;21.272;2023-03-09T09:21:20;12.37;;;3.03;;
71513;SDS011;59335;46.652;21.272;2023-03-09T09:24:23;8.82;;;2.67;;
71513;SDS011;59335;46.652;21.272;2023-03-09T09:27:26;9.35;;;2.72;;
71513;SDS011;59335;46.652;21.272;2023-03-09T09:30:29;9.90;;;2.90;;
71513;SDS011;59335;46.652;21.272;2023-03-09T09:33:35;9.25;;;3.05;;
71513;SDS011;59335;46.652;21.272;2023-03-09T09:36:39;10.77;;;2.73;;
71513;SDS011;59335;46.652;21.272;2023-03-09T09:39:43;10.13;;;2.80;;
71513;SDS011;59335;46.652;21.272;2023-03-09T09:42:55;10.07;;;2.75;;
71513;SDS011;59335;46.652;21.272;2023-03-09T09:46:00;8.00;;;3.20;;
71513;SDS011;59335;46.652;21.272;2023-03-09T09:49:04;9.63;;;2.88;;
71513;SDS011;59335;46.652;21.272;2023-03-09T09:55:59;12.68;;;3.15;;
71513;SDS011;59335;46.652;21.272;2023-03-09T09:59:06;7.35;;;2.55;;
71513;SDS011;59335;46.652;21.272;2023-03-09T10:06:12;8.38;;;2.90;;
71513;SDS011;59335;46.652;21.272;2023-03-09T10:09:21;13.83;;;2.80;;
71513;SDS011;59335;46.652;21.272;2023-03-09T10:12:28;11.65;;;2.90;;
71513;SDS011;59335;46.652;21.272;2023-03-09T10:15:33;10.57;;;3.03;;
71513;SDS011;59335;46.652;21.272;2023-03-09T10:18:40;9.65;;;3.03;;
71513;SDS011;59335;46.652;21.272;2023-03-09T10:25:09;15.20;;;3.13;;
71513;SDS011;59335;46.652;21.272;2023-03-09T10:28:19;10.38;;;2.90;;
71513;SDS011;59335;46.652;21.272;2023-03-09T10:31:30;11.23;;;3.35;;
71513;SDS011;59335;46.652;21.272;2023-03-09T10:35:06;10.98;;;3.10;;
71513;SDS011;59335;46.652;21.272;2023-03-09T10:38:13;9.88;;;3.03;;
71513;SDS011;59335;46.652;21.272;2023-03-09T10:41:27;10.40;;;2.80;;
71513;SDS011;59335;46.652;21.272;2023-03-09T10:44:31;10.48;;;3.08;;
71513;SDS011;59335;46.652;21.272;2023-03-09T10:47:57;11.68;;;3.03;;
71513;SDS011;59335;46.652;21.272;2023-03-09T10:51:30;12.38;;;2.63;;
71513;SDS011;59335;46.652;21.272;2023-03-09T10:54:38;11.45;;;2.85;;
71513;SDS011;59335;46.652;21.272;2023-03-09T10:57:42;13.20;;;3.17;;
71513;SDS011;59335;46.652;21.272;2023-03-09T11:01:00;9.85;;;3.70;;
71513;SDS011;59335;46.652;21.272;2023-03-09T11:04:25;17.40;;;4.15;;
71513;SDS011;59335;46.652;21.272;2023-03-09T11:07:30;10.82;;;3.38;;
71513;SDS011;59335;46.652;21.272;2023-03-09T11:10:34;11.40;;;3.38;;
71513;SDS011;59335;46.652;21.272;2023-03-09T11:13:37;9.23;;;3.40;;
71513;SDS011;59335;46.652;21.272;2023-03-09T11:16:50;7.78;;;3.00;;
71513;SDS011;59335;46.652;21.272;2023-03-09T11:30:18;8.63;;;3.13;;
71513;SDS011;59335;46.652;21.272;2023-03-09T11:33:25;8.70;;;3.35;;
71513;SDS011;59335;46.652;21.272;2023-03-09T11:36:36;9.45;;;3.30;;
71513;SDS011;59335;46.652;21.272;2023-03-09T11:39:49;7.50;;;3.17;;
71513;SDS011;59335;46.652;21.272;2023-03-09T11:46:26;11.23;;;3.43;;
71513;SDS011;59335;46.652;21.272;2023-03-09T11:49:31;7.82;;;2.90;;
71513;SDS011;59335;46.652;21.272;2023-03-09T11:52:42;14.07;;;3.70;;
71513;SDS011;59335;46.652;21.272;2023-03-09T11:55:55;13.38;;;3.40;;
71513;SDS011;59335;46.652;21.272;2023-03-09T12:05:49;14.18;;;3.28;;
71513;SDS011;59335;46.652;21.272;2023-03-09T12:09:00;12.50;;;2.85;;
71513;SDS011;59335;46.652;21.272;2023-03-09T12:18:38;12.43;;;3.43;;
71513;SDS011;59335;46.652;21.272;2023-03-09T12:21:49;11.90;;;3.20;;
71513;SDS011;59335;46.652;21.272;2023-03-09T12:25:03;12.73;;;3.38;;
71513;SDS011;59335;46.652;21.272;2023-03-09T12:28:14;10.50;;;3.10;;
71513;SDS011;59335;46.652;21.272;2023-03-09T12:31:33;11.68;;;3.53;;
71513;SDS011;59335;46.652;21.272;2023-03-09T12:34:39;12.63;;;3.07;;
71513;SDS011;59335;46.652;21.272;2023-03-09T12:40:49;12.65;;;3.42;;
71513;SDS011;59335;46.652;21.272;2023-03-09T12:43:56;14.80;;;3.35;;
71513;SDS011;59335;46.652;21.272;2023-03-09T12:47:01;13.07;;;3.80;;
71513;SDS011;59335;46.652;21.272;2023-03-09T12:50:17;12.33;;;3.23;;
71513;SDS011;59335;46.652;21.272;2023-03-09T12:53:25;12.57;;;2.92;;
71513;SDS011;59335;46.652;21.272;2023-03-09T12:56:32;10.88;;;3.60;;
71513;SDS011;59335;46.652;21.272;2023-03-09T12:59:37;18.70;;;3.53;;
71513;SDS011;59335;46.652;21.272;2023-03-09T13:09:35;13.50;;;3.53;;
71513;SDS011;59335;46.652;21.272;2023-03-09T13:12:42;12.35;;;3.35;;
71513;SDS011;59335;46.652;21.272;2023-03-09T13:15:45;11.27;;;3.33;;
71513;SDS011;59335;46.652;21.272;2023-03-09T13:18:48;9.20;;;3.38;;
71513;SDS011;59335;46.652;21.272;2023-03-09T13:25:11;12.88;;;3.08;;
71513;SDS011;59335;46.652;21.272;2023-03-09T13:28:36;13.93;;;3.08;;
71513;SDS011;59335;46.652;21.272;2023-03-09T13:31:41;12.48;;;3.38;;
71513;SDS011;59335;46.652;21.272;2023-03-09T13:34:50;17.10;;;3.67;;
71513;SDS011;59335;46.652;21.272;2023-03-09T13:37:57;16.53;;;3.00;;
71513;SDS011;59335;46.652;21.272;2023-03-09T13:41:22;12.57;;;3.33;;
71513;SDS011;59335;46.652;21.272;2023-03-09T13:44:28;13.20;;;3.20;;
71513;SDS011;59335;46.652;21.272;2023-03-09T13:47:33;13.27;;;3.30;;
71513;SDS011;59335;46.652;21.272;2023-03-09T13:50:42;13.45;;;3.45;;
71513;SDS011;59335;46.652;21.272;2023-03-09T13:53:47;12.87;;;3.20;;
71513;SDS011;59335;46.652;21.272;2023-03-09T13:56:57;14.40;;;3.63;;
71513;SDS011;59335;46.652;21.272;2023-03-09T14:03:20;17.10;;;3.30;;
71513;SDS011;59335;46.652;21.272;2023-03-09T14:06:34;13.25;;;3.28;;
71513;SDS011;59335;46.652;21.272;2023-03-09T14:09:58;14.17;;;3.33;;
71513;SDS011;59335;46.652;21.272;2023-03-09T14:13:13;11.43;;;3.13;;
71513;SDS011;59335;46.652;21.272;2023-03-09T14:16:17;15.45;;;3.13;;
71513;SDS011;59335;46.652;21.272;2023-03-09T14:19:29;11.05;;;3.05;;
71513;SDS011;59335;46.652;21.272;2023-03-09T14:22:34;14.20;;;3.33;;
71513;SDS011;59335;46.652;21.272;2023-03-09T14:25:37;12.77;;;3.13;;
71513;SDS011;59335;46.652;21.272;2023-03-09T14:28:56;10.38;;;3.03;;
71513;SDS011;59335;46.652;21.272;2023-03-09T14:35:31;12.95;;;3.45;;
71513;SDS011;59335;46.652;21.272;2023-03-09T14:38:53;14.68;;;4.05;;
71513;SDS011;59335;46.652;21.272;2023-03-09T14:48:17;14.55;;;3.13;;
71513;SDS011;59335;46.652;21.272;2023-03-09T14:51:21;10.38;;;2.80;;
71513;SDS011;59335;46.652;21.272;2023-03-09T14:54:26;15.85;;;3.30;;
71513;SDS011;59335;46.652;21.272;2023-03-09T14:57:29;12.90;;;3.27;;
71513;SDS011;59335;46.652;21.272;2023-03-09T15:00:32;9.88;;;3.00;;
71513;SDS011;59335;46.652;21.272;2023-03-09T15:03:35;12.90;;;3.72;;
71513;SDS011;59335;46.652;21.272;2023-03-09T15:06:38;12.85;;;3.50;;
71513;SDS011;59335;46.652;21.272;2023-03-09T15:09:41;11.80;;;3.22;;
71513;SDS011;59335;46.652;21.272;2023-03-09T15:12:46;9.30;;;3.20;;
71513;SDS011;59335;46.652;21.272;2023-03-09T15:15:49;16.25;;;3.58;;
71513;SDS011;59335;46.652;21.272;2023-03-09T15:18:52;15.13;;;3.47;;
71513;SDS011;59335;46.652;21.272;2023-03-09T15:21:55;9.70;;;2.78;;
71513;SDS011;59335;46.652;21.272;2023-03-09T15:25:02;11.35;;;3.42;;
71513;SDS011;59335;46.652;21.272;2023-03-09T15:28:05;15.43;;;3.20;;
71513;SDS011;59335;46.652;21.272;2023-03-09T15:31:11;13.48;;;3.25;;
71513;SDS011;59335;46.652;21.272;2023-03-09T15:34:14;16.65;;;3.67;;
71513;SDS011;59335;46.652;21.272;2023-03-09T15:37:17;10.57;;;2.97;;
71513;SDS011;59335;46.652;21.272;2023-03-09T15:40:20;11.77;;;3.08;;
71513;SDS011;59335;46.652;21.272;2023-03-09T15:43:23;14.27;;;3.50;;
71513;SDS011;59335;46.652;21.272;2023-03-09T15:46:26;12.50;;;3.13;;
71513;SDS011;59335;46.652;21.272;2023-03-09T15:49:28;12.45;;;3.00;;
71513;SDS011;59335;46.652;21.272;2023-03-09T15:52:34;10.68;;;3.03;;
71513;SDS011;59335;46.652;21.272;2023-03-09T15:55:38;10.82;;;2.92;;
71513;SDS011;59335;46.652;21.272;2023-03-09T15:58:41;14.50;;;3.30;;
71513;SDS011;59335;46.652;21.272;2023-03-09T16:01:44;14.93;;;3.17;;
71513;SDS011;59335;46.652;21.272;2023-03-09T16:04:49;17.52;;;3.30;;
71513;SDS011;59335;46.652;21.272;2023-03-09T16:07:51;13.85;;;3.65;;
71513;SDS011;59335;46.652;21.272;2023-03-09T16:10:54;14.82;;;3.47;;
71513;SDS011;59335;46.652;21.272;2023-03-09T16:13:57;10.70;;;3.27;;
71513;SDS011;59335;46.652;21.272;2023-03-09T16:17:00;16.00;;;3.40;;
71513;SDS011;59335;46.652;21.272;2023-03-09T16:20:03;15.90;;;3.75;;
71513;SDS011;59335;46.652;21.272;2023-03-09T16:23:07;23.20;;;4.47;;
71513;SDS011;59335;46.652;21.272;2023-03-09T16:26:13;18.63;;;3.55;;
71513;SDS011;59335;46.652;21.272;2023-03-09T16:29:19;17.23;;;4.07;;
71513;SDS011;59335;46.652;21.272;2023-03-09T16:32:25;17.92;;;3.80;;
71513;SDS011;59335;46.652;21.272;2023-03-09T16:35:28;15.23;;;4.05;;
71513;SDS011;59335;46.652;21.272;2023-03-09T16:38:30;16.80;;;3.20;;
71513;SDS011;59335;46.652;21.272;2023-03-09T16:41:33;14.07;;;3.55;;
71513;SDS011;59335;46.652;21.272;2023-03-09T16:44:36;12.93;;;3.20;;
71513;SDS011;59335;46.652;21.272;2023-03-09T16:47:39;16.13;;;3.70;;
71513;SDS011;59335;46.652;21.272;2023-03-09T16:50:42;18.80;;;3.97;;
71513;SDS011;59335;46.652;21.272;2023-03-09T16:53:45;18.13;;;3.83;;
71513;SDS011;59335;46.652;21.272;2023-03-09T16:56:48;16.20;;;3.58;;
71513;SDS011;59335;46.652;21.272;2023-03-09T16:59:55;12.70;;;3.67;;
71513;SDS011;59335;46.652;21.272;2023-03-09T17:02:59;15.52;;;3.78;;
71513;SDS011;59335;46.652;21.272;2023-03-09T17:06:02;15.35;;;3.80;;
71513;SDS011;59335;46.652;21.272;2023-03-09T17:09:05;16.85;;;3.92;;
71513;SDS011;59335;46.652;21.272;2023-03-09T17:12:09;15.10;;;3.13;;
71513;SDS011;59335;46.652;21.272;2023-03-09T17:15:12;12.23;;;3.60;;
71513;SDS011;59335;46.652;21.272;2023-03-09T17:18:15;13.95;;;3.75;;
71513;SDS011;59335;46.652;21.272;2023-03-09T17:21:18;13.93;;;3.42;;
71513;SDS011;59335;46.652;21.272;2023-03-09T17:24:31;12.57;;;3.05;;
71513;SDS011;59335;46.652;21.272;2023-03-09T17:27:36;13.50;;;3.42;;
71513;SDS011;59335;46.652;21.272;2023-03-09T17:30:39;10.80;;;3.23;;
71513;SDS011;59335;46.652;21.272;2023-03-09T17:33:48;15.95;;;3.97;;
71513;SDS011;59335;46.652;21.272;2023-03-09T17:36:51;11.68;;;3.20;;
71513;SDS011;59335;46.652;21.272;2023-03-09T17:39:55;10.75;;;3.05;;
71513;SDS011;59335;46.652;21.272;2023-03-09T17:42:59;9.88;;;3.20;;
71513;SDS011;59335;46.652;21.272;2023-03-09T17:46:04;11.73;;;2.93;;
71513;SDS011;59335;46.652;21.272;2023-03-09T17:49:11;12.95;;;3.30;;
71513;SDS011;59335;46.652;21.272;2023-03-09T17:52:14;16.02;;;3.70;;
71513;SDS011;59335;46.652;21.272;2023-03-09T17:55:18;10.18;;;2.97;;
71513;SDS011;59335;46.652;21.272;2023-03-09T17:58:20;11.15;;;3.58;;
71513;SDS011;59335;46.652;21.272;2023-03-09T18:01:25;10.90;;;3.33;;
71513;SDS011;59335;46.652;21.272;2023-03-09T18:04:31;12.05;;;3.53;;
71513;SDS011;59335;46.652;21.272;2023-03-09T18:07:35;13.77;;;3.58;;
71513;SDS011;59335;46.652;21.272;2023-03-09T18:10:42;11.80;;;3.50;;
71513;SDS011;59335;46.652;21.272;2023-03-09T18:13:50;13.65;;;3.88;;
71513;SDS011;59335;46.652;21.272;2023-03-09T18:16:55;12.37;;;3.77;;
71513;SDS011;59335;46.652;21.272;2023-03-09T18:19:58;12.13;;;3.92;;
71513;SDS011;59335;46.652;21.272;2023-03-09T18:23:03;15.13;;;3.97;;
71513;SDS011;59335;46.652;21.272;2023-03-09T18:26:09;14.60;;;4.32;;
71513;SDS011;59335;46.652;21.272;2023-03-09T18:29:24;11.98;;;3.67;;
71513;SDS011;59335;46.652;21.272;2023-03-09T18:32:27;9.73;;;3.70;;
71513;SDS011;59335;46.652;21.272;2023-03-09T18:35:31;11.80;;;3.50;;
71513;SDS011;59335;46.652;21.272;2023-03-09T18:38:34;11.05;;;3.70;;
71513;SDS011;59335;46.652;21.272;2023-03-09T18:41:39;14.43;;;3.88;;
71513;SDS011;59335;46.652;21.272;2023-03-09T18:44:42;11.38;;;4.13;;
71513;SDS011;59335;46.652;21.272;2023-03-09T18:47:49;12.40;;;3.90;;
71513;SDS011;59335;46.652;21.272;2023-03-09T18:50:54;12.90;;;4.40;;
71513;SDS011;59335;46.652;21.272;2023-03-09T18:53:58;10.98;;;4.47;;
71513;SDS011;59335;46.652;21.272;2023-03-09T18:57:04;10.95;;;3.80;;
71513;SDS011;59335;46.652;21.272;2023-03-09T19:00:09;10.25;;;4.90;;
71513;SDS011;59335;46.652;21.272;2023-03-09T19:03:14;11.10;;;3.70;;
71513;SDS011;59335;46.652;21.272;2023-03-09T19:06:19;13.48;;;4.05;;
71513;SDS011;59335;46.652;21.272;2023-03-09T19:09:23;9.18;;;3.90;;
71513;SDS011;59335;46.652;21.272;2023-03-09T19:12:27;11.25;;;4.57;;
71513;SDS011;59335;46.652;21.272;2023-03-09T19:15:31;12.52;;;4.45;;
71513;SDS011;59335;46.652;21.272;2023-03-09T19:18:36;12.47;;;4.27;;
71513;SDS011;59335;46.652;21.272;2023-03-09T19:21:40;13.25;;;3.95;;
71513;SDS011;59335;46.652;21.272;2023-03-09T19:24:48;11.65;;;4.38;;